createdAt,value
2022-08-27T00:03:33.200Z,101677.34
2022-08-27T00:08:37.114Z,101685.09
2022-08-27T00:13:38.908Z,101694.56
2022-08-27T00:18:41.693Z,101677.81
2022-08-27T00:23:43.730Z,101682.53
2022-08-27T00:28:45.883Z,101674.63
2022-08-27T00:33:47.556Z,101676.78
2022-08-27T00:38:49.724Z,101667.53
2022-08-27T00:43:58.078Z,101674.19
2022-08-27T00:49:16.206Z,101674.41
2022-08-27T00:54:19.001Z,101667.56
2022-08-27T00:59:24.183Z,101680.66
2022-08-27T01:04:26.352Z,101675.47
2022-08-27T01:09:28.465Z,101681.50
2022-08-27T01:14:30.481Z,101679.78
2022-08-27T01:19:41.174Z,101676.16
2022-08-27T01:24:46.821Z,101675.91
2022-08-27T01:29:50.590Z,101680.19
2022-08-27T01:34:53.912Z,101673.34
2022-08-27T01:39:59.128Z,101680.41
2022-08-27T01:45:06.279Z,101675.66
2022-08-27T01:50:12.649Z,101664.94
2022-08-27T01:55:19.033Z,101670.28
2022-08-27T02:00:25.010Z,101666.41
2022-08-27T02:05:28.350Z,101667.47
2022-08-27T02:10:39.293Z,101661.88
2022-08-27T02:15:43.135Z,101667.25
2022-08-27T02:20:46.647Z,101659.94
2022-08-27T02:25:48.479Z,101670.19
2022-08-27T02:30:50.247Z,101661.63
2022-08-27T02:35:52.088Z,101653.47
2022-08-27T02:40:54.112Z,101644.66
2022-08-27T02:45:56.053Z,101646.59
2022-08-27T02:50:57.782Z,101645.47
2022-08-27T02:55:59.766Z,101638.81
2022-08-27T03:01:02.536Z,101642.19
2022-08-27T03:06:04.555Z,101640.47
2022-08-27T03:11:08.254Z,101626.28
2022-08-27T03:16:11.799Z,101631.47
2022-08-27T03:21:24.726Z,101628.00
2022-08-27T03:26:29.021Z,101626.00
2022-08-27T03:31:31.309Z,101624.56
2022-08-27T03:36:33.445Z,101634.22
2022-08-27T03:41:47.217Z,101629.88
2022-08-27T03:46:57.570Z,101636.53
2022-08-27T03:51:59.618Z,101630.63
2022-08-27T03:57:01.318Z,101630.41
2022-08-27T04:02:03.226Z,101636.03
2022-08-27T04:07:05.056Z,101632.88
2022-08-27T04:12:06.970Z,101625.38
2022-08-27T04:17:08.706Z,101624.31
2022-08-27T04:22:10.664Z,101627.75
2022-08-27T04:27:14.548Z,101622.66
2022-08-27T04:32:16.281Z,101623.53
2022-08-27T04:37:23.227Z,101621.84
2022-08-27T04:42:25.510Z,101631.47
2022-08-27T04:47:27.279Z,101642.63
2022-08-27T04:52:29.008Z,101643.72
2022-08-27T04:57:30.700Z,101653.13
2022-08-27T05:02:32.403Z,101645.84
2022-08-27T05:07:34.299Z,101654.22
2022-08-27T05:12:36.063Z,101657.22
2022-08-27T05:17:37.777Z,101654.84
2022-08-27T05:22:39.742Z,101654.69
2022-08-27T05:27:41.382Z,101662.63
2022-08-27T05:32:43.356Z,101664.56
2022-08-27T05:37:45.185Z,101666.25
2022-08-27T05:42:50.052Z,101677.00
2022-08-27T05:47:52.972Z,101673.13
2022-08-27T05:52:54.818Z,101665.63
2022-08-27T05:57:56.550Z,101671.22
2022-08-27T06:02:58.360Z,101674.00
2022-08-27T06:08:00.191Z,101663.25
2022-08-27T06:13:03.518Z,101667.94
2022-08-27T06:18:05.341Z,101661.91
2022-08-27T06:23:07.145Z,101662.88
2022-08-27T06:28:08.837Z,101660.56
2022-08-27T06:33:10.710Z,101668.41
2022-08-27T06:38:12.486Z,101665.41
2022-08-27T06:43:14.249Z,101671.41
2022-08-27T06:48:16.248Z,101675.44
2022-08-27T06:53:18.034Z,101678.47
2022-08-27T06:58:25.996Z,101670.50
2022-08-27T07:03:28.019Z,101669.41
2022-08-27T07:08:29.790Z,101669.59
2022-08-27T07:13:31.632Z,101671.09
2022-08-27T07:18:34.630Z,101676.44
2022-08-27T07:23:38.043Z,101682.34
2022-08-27T07:28:40.941Z,101684.91
2022-08-27T07:33:46.249Z,101682.44
2022-08-27T07:39:00.971Z,101694.72
2022-08-27T07:44:25.970Z,101691.38
2022-08-27T07:49:29.077Z,101696.34
2022-08-27T07:54:31.897Z,101700.13
2022-08-27T07:59:33.590Z,101705.56
2022-08-27T08:04:35.860Z,101706.56
2022-08-27T08:09:37.677Z,101700.38
2022-08-27T08:14:39.336Z,101717.03
2022-08-27T08:19:41.269Z,101717.59
2022-08-27T08:24:43.137Z,101721.91
2022-08-27T08:29:45.770Z,101731.28
2022-08-27T08:34:48.064Z,101723.22
2022-08-27T08:39:49.872Z,101729.63
2022-08-27T08:44:55.367Z,101728.50
2022-08-27T08:50:19.675Z,101735.56
2022-08-27T08:55:37.399Z,101727.97
2022-08-27T09:00:42.454Z,101747.38
2022-08-27T09:05:50.923Z,101733.38
2022-08-27T09:10:55.754Z,101733.00
2022-08-27T09:16:01.165Z,101734.00
2022-08-27T09:21:15.270Z,101746.91
2022-08-27T09:26:20.080Z,101745.50
2022-08-27T09:31:21.982Z,101745.31
2022-08-27T09:36:24.670Z,101747.53
2022-08-27T09:41:33.348Z,101741.72
2022-08-27T09:46:35.416Z,101740.81
2022-08-27T09:51:41.800Z,101742.03
2022-08-27T09:56:49.337Z,101737.66
2022-08-27T10:02:03.003Z,101738.25
2022-08-27T10:07:47.021Z,101732.91
2022-08-27T10:12:58.864Z,101728.63
2022-08-27T10:18:10.497Z,101726.09
2022-08-27T10:23:31.406Z,101727.41
2022-08-27T10:28:47.624Z,101735.47
2022-08-27T10:34:21.200Z,101733.97
2022-08-27T10:45:04.470Z,101736.41
2022-08-27T10:50:26.268Z,101734.53
2022-08-27T10:55:40.579Z,101725.44
2022-08-27T11:01:00.542Z,101721.69
2022-08-27T11:06:22.187Z,101724.00
2022-08-27T11:17:32.612Z,101739.50
2022-08-27T11:22:56.737Z,101735.00
2022-08-27T11:28:02.711Z,101736.19
2022-08-27T11:33:07.298Z,101740.47
2022-08-27T11:38:30.031Z,101731.50
2022-08-27T11:43:35.712Z,101718.72
2022-08-27T11:48:43.180Z,101721.72
2022-08-27T11:54:00.179Z,101722.94
2022-08-27T11:59:26.567Z,101719.31
2022-08-27T12:04:31.447Z,101717.13
2022-08-27T12:09:59.442Z,101708.22
2022-08-27T12:15:13.250Z,101711.34
2022-08-27T12:20:36.372Z,101711.16
2022-08-27T12:25:38.262Z,101707.16
2022-08-27T12:30:49.813Z,101709.88
2022-08-27T12:35:55.137Z,101708.53
2022-08-27T12:41:03.899Z,101712.41
2022-08-27T12:46:08.700Z,101717.63
2022-08-27T12:51:22.471Z,101716.94
2022-08-27T12:56:49.919Z,101712.66
2022-08-27T13:01:55.380Z,101700.59
2022-08-27T13:06:58.272Z,101694.47
2022-08-27T13:12:02.432Z,101689.47
2022-08-27T13:17:10.130Z,101695.59
2022-08-27T13:22:20.599Z,101692.16
2022-08-27T13:27:31.422Z,101689.09
2022-08-27T13:32:33.725Z,101688.00
2022-08-27T13:37:41.605Z,101691.94
2022-08-27T13:42:45.309Z,101699.38
2022-08-27T13:47:49.195Z,101696.31
2022-08-27T13:53:12.019Z,101694.13
2022-08-27T13:58:19.212Z,101702.75
2022-08-27T14:03:39.062Z,101691.41
2022-08-27T14:08:40.936Z,101699.59
2022-08-27T14:13:47.679Z,101701.31
2022-08-27T14:18:59.262Z,101686.53
2022-08-27T14:24:02.121Z,101705.09
2022-08-27T14:29:04.053Z,101691.56
2022-08-27T14:34:14.751Z,101700.69
2022-08-27T14:39:16.546Z,101707.44
2022-08-27T14:44:18.299Z,101712.44
2022-08-27T14:49:31.314Z,101715.97
2022-08-27T14:54:33.802Z,101718.66
2022-08-27T14:59:37.864Z,101729.06
2022-08-27T15:04:39.782Z,101738.81
2022-08-27T15:09:44.046Z,101729.28
2022-08-27T15:14:45.763Z,101727.56
2022-08-27T15:19:47.577Z,101738.81
2022-08-27T15:24:54.484Z,101743.69
2022-08-27T15:29:56.156Z,101739.41
2022-08-27T15:34:59.181Z,101739.16
2022-08-27T15:40:02.187Z,101748.91
2022-08-27T15:45:06.956Z,101748.53
2022-08-27T15:50:08.835Z,101738.31
2022-08-27T15:55:21.005Z,101755.94
2022-08-27T16:00:24.114Z,101749.47
2022-08-27T16:05:30.542Z,101745.53
2022-08-27T16:10:32.337Z,101745.53
2022-08-27T16:15:39.514Z,101755.78
2022-08-27T16:20:42.004Z,101750.41
2022-08-27T16:25:43.796Z,101754.31
2022-08-27T16:30:45.645Z,101749.44
2022-08-27T16:35:48.323Z,101747.47
2022-08-27T16:40:52.976Z,101752.13
2022-08-27T16:45:58.582Z,101746.88
2022-08-27T16:51:00.982Z,101753.25
2022-08-27T16:56:03.168Z,101750.75
2022-08-27T17:01:08.389Z,101751.25
2022-08-27T17:06:10.666Z,101747.63
2022-08-27T17:11:16.125Z,101752.00
2022-08-27T17:16:21.361Z,101750.03
2022-08-27T17:21:25.543Z,101754.28
2022-08-27T17:26:32.751Z,101745.50
2022-08-27T17:31:37.659Z,101760.88
2022-08-27T17:36:39.439Z,101756.88
2022-08-27T17:41:44.386Z,101756.28
2022-08-27T17:46:46.489Z,101769.78
2022-08-27T17:51:49.795Z,101756.34
2022-08-27T17:56:51.591Z,101764.72
2022-08-27T18:01:53.544Z,101768.97
2022-08-27T18:06:55.323Z,101772.94
2022-08-27T18:11:58.208Z,101770.34
2022-08-27T18:17:00.277Z,101775.56
2022-08-27T18:22:01.966Z,101785.69
2022-08-27T18:27:03.775Z,101783.59
2022-08-27T18:32:05.566Z,101791.44
2022-08-27T18:37:07.640Z,101791.31
2022-08-27T18:42:10.421Z,101798.66
2022-08-27T18:47:12.818Z,101799.03
2022-08-27T18:52:23.076Z,101808.59
2022-08-27T18:57:24.813Z,101810.31
2022-08-27T19:02:27.520Z,101818.56
2022-08-27T19:07:29.927Z,101816.13
2022-08-27T19:12:31.880Z,101828.94
2022-08-27T19:17:36.215Z,101833.34
2022-08-27T19:22:47.878Z,101826.53
2022-08-27T19:27:51.687Z,101835.09
2022-08-27T19:32:54.625Z,101836.66
2022-08-27T19:37:57.021Z,101838.81
2022-08-27T19:42:59.682Z,101849.38
2022-08-27T19:48:01.818Z,101849.53
2022-08-27T19:53:03.960Z,101855.25
2022-08-27T19:58:09.082Z,101852.75
2022-08-27T20:03:12.371Z,101868.31
2022-08-27T20:08:14.650Z,101866.72
2022-08-27T20:13:17.784Z,101868.69
2022-08-27T20:18:21.738Z,101862.06
2022-08-27T20:23:26.502Z,101867.72
2022-08-27T20:28:46.057Z,101871.59
2022-08-27T20:33:49.712Z,101870.31
2022-08-27T20:38:52.578Z,101873.16
2022-08-27T20:43:57.698Z,101874.22
2022-08-27T20:49:06.681Z,101878.31
2022-08-27T20:54:08.405Z,101876.84
2022-08-27T20:59:29.347Z,101877.25
2022-08-27T21:04:49.531Z,101885.41
2022-08-27T21:09:55.833Z,101890.16
2022-08-27T21:15:00.863Z,101885.63
2022-08-27T21:20:08.496Z,101884.56
2022-08-27T21:25:12.817Z,101880.28
2022-08-27T21:30:14.546Z,101888.22
2022-08-27T21:35:16.450Z,101889.94
2022-08-27T21:40:20.162Z,101881.97
2022-08-27T21:45:23.053Z,101886.28
2022-08-27T21:50:25.106Z,101892.09
2022-08-27T21:55:26.832Z,101886.91
2022-08-27T22:00:28.941Z,101885.63
2022-08-27T22:05:30.995Z,101900.00
2022-08-27T22:10:32.987Z,101897.22
2022-08-27T22:15:35.929Z,101891.38
2022-08-27T22:20:38.131Z,101900.81
2022-08-27T22:25:39.900Z,101895.22
2022-08-27T22:30:42.154Z,101901.47
2022-08-27T22:35:43.827Z,101902.09
2022-08-27T22:40:45.725Z,101906.16
2022-08-27T22:45:48.586Z,101910.88
2022-08-27T22:50:50.281Z,101907.44
2022-08-27T22:55:52.107Z,101916.44
2022-08-27T23:00:54.972Z,101913.19
2022-08-27T23:05:57.638Z,101909.13
2022-08-27T23:10:59.547Z,101914.03
2022-08-27T23:16:03.061Z,101919.16
2022-08-27T23:21:06.066Z,101922.13
2022-08-27T23:26:26.485Z,101918.91
2022-08-27T23:31:28.219Z,101913.53
2022-08-27T23:36:30.055Z,101915.00
2022-08-27T23:41:31.767Z,101918.41
2022-08-27T23:46:33.522Z,101918.31
2022-08-27T23:51:35.263Z,101922.38
2022-08-27T23:56:40.109Z,101915.50
